createdAt,value
2018-12-24T00:01:24.290Z,0.30
2018-12-24T00:04:11.713Z,0.20
2018-12-24T00:06:52.400Z,0.00
2018-12-24T00:09:31.348Z,0.00
2018-12-24T00:12:18.773Z,0.30
2018-12-24T00:15:00.289Z,0.65
2018-12-24T00:17:47.733Z,0.08
2018-12-24T00:20:28.690Z,0.10
2018-12-24T00:23:07.717Z,0.10
2018-12-24T00:25:55.161Z,0.15
2018-12-24T00:28:35.808Z,0.00
2018-12-24T00:31:16.446Z,0.65
2018-12-24T00:33:58.063Z,0.28
2018-12-24T00:36:45.497Z,0.00
2018-12-24T00:39:26.604Z,0.75
2018-12-24T00:42:15.683Z,0.00
2018-12-24T00:44:49.993Z,0.00
2018-12-24T00:47:30.887Z,0.00
2018-12-24T00:50:09.848Z,0.00
2018-12-24T00:52:57.267Z,0.00
2018-12-24T00:55:37.841Z,0.00
2018-12-24T00:58:16.799Z,0.00
2018-12-24T01:00:57.684Z,0.00
2018-12-24T01:03:45.122Z,0.00
2018-12-24T01:06:25.956Z,0.00
2018-12-24T01:09:05.498Z,0.08
2018-12-24T01:11:52.924Z,2.17
2018-12-24T01:14:34.121Z,0.00
2018-12-24T01:17:14.893Z,0.05
2018-12-24T01:19:53.769Z,0.20
2018-12-24T01:22:41.540Z,0.00
2018-12-24T01:25:22.624Z,0.00
2018-12-24T01:28:03.192Z,0.00
2018-12-24T01:30:42.180Z,0.10
2018-12-24T01:33:29.597Z,0.00
2018-12-24T01:36:10.428Z,0.00
2018-12-24T01:38:51.601Z,0.00
2018-12-24T01:41:39.020Z,0.00
2018-12-24T01:44:20.093Z,0.00
2018-12-24T01:46:59.132Z,0.00
2018-12-24T01:49:46.553Z,0.00
2018-12-24T01:52:25.556Z,0.00
2018-12-24T01:55:12.985Z,0.00
2018-12-24T01:58:00.738Z,0.00
2018-12-24T02:00:48.521Z,0.00
2018-12-24T02:03:29.609Z,0.00
2018-12-24T02:06:08.684Z,0.00
2018-12-24T02:08:56.100Z,0.00
2018-12-24T02:11:37.393Z,0.98
2018-12-24T02:14:37.765Z,0.00
2018-12-24T02:17:18.816Z,0.30
2018-12-24T02:19:59.429Z,0.00
2018-12-24T02:22:41.057Z,0.00
2018-12-24T02:25:28.468Z,0.00
2018-12-24T02:28:09.485Z,0.00
2018-12-24T02:30:51.025Z,0.00
2018-12-24T02:33:38.457Z,0.00
2018-12-24T02:36:19.044Z,0.00
2018-12-24T02:38:59.949Z,0.03
2018-12-24T02:41:41.401Z,0.00
2018-12-24T02:44:28.809Z,0.00
2018-12-24T02:47:09.858Z,0.03
2018-12-24T02:49:48.805Z,0.00
2018-12-24T02:52:29.885Z,0.10
2018-12-24T02:55:10.491Z,0.80
2018-12-24T02:57:51.412Z,0.35
2018-12-24T03:00:32.812Z,0.00
2018-12-24T03:03:20.577Z,0.00
2018-12-24T03:06:01.390Z,0.00
2018-12-24T03:08:48.844Z,0.00
2018-12-24T03:11:30.625Z,0.00
2018-12-24T03:14:18.376Z,0.00
2018-12-24T03:16:59.599Z,0.00
2018-12-24T03:19:47.034Z,0.00
2018-12-24T03:22:28.043Z,0.00
2018-12-24T03:25:15.785Z,0.00
2018-12-24T03:28:03.208Z,0.10
2018-12-24T03:30:41.895Z,0.00
2018-12-24T03:33:22.950Z,0.00
2018-12-24T03:36:02.063Z,0.00
2018-12-24T03:41:52.365Z,0.00
2018-12-24T03:44:31.207Z,0.00
2018-12-24T03:47:18.613Z,0.00
2018-12-24T03:49:59.424Z,0.00
2018-12-24T03:52:38.150Z,0.00
2018-12-24T03:55:25.573Z,0.00
2018-12-24T03:58:06.677Z,1.15
2018-12-24T04:00:47.322Z,0.20
2018-12-24T04:03:27.822Z,0.45
2018-12-24T04:06:08.552Z,0.10
2018-12-24T04:08:49.198Z,0.37
2018-12-24T04:11:29.979Z,0.50
2018-12-24T04:14:10.679Z,3.72
2018-12-24T04:16:51.332Z,0.03
2018-12-24T04:19:31.951Z,0.10
2018-12-24T04:22:12.778Z,0.10
2018-12-24T04:24:54.073Z,0.00
2018-12-24T04:27:42.255Z,0.30
2018-12-24T04:30:24.350Z,0.00
2018-12-24T04:33:05.089Z,0.93
2018-12-24T04:35:46.401Z,0.10
2018-12-24T04:38:33.822Z,1.95
2018-12-24T04:41:14.813Z,0.35
2018-12-24T04:43:55.517Z,0.37
2018-12-24T04:46:36.810Z,0.23
2018-12-24T04:49:24.226Z,0.00
2018-12-24T04:52:03.153Z,0.42
2018-12-24T04:54:44.904Z,0.00
2018-12-24T04:57:32.694Z,0.98
2018-12-24T05:00:13.457Z,0.00
2018-12-24T05:02:52.171Z,0.00
2018-12-24T05:05:32.980Z,0.85
2018-12-24T05:08:13.533Z,0.27
2018-12-24T05:10:54.136Z,1.17
2018-12-24T05:13:40.684Z,0.88
2018-12-24T05:16:16.113Z,0.00
2018-12-24T05:18:56.649Z,0.00
2018-12-24T05:21:35.617Z,0.00
2018-12-24T05:24:17.249Z,0.10
2018-12-24T05:27:04.998Z,0.40
2018-12-24T05:29:43.813Z,0.37
2018-12-24T05:32:31.238Z,0.45
2018-12-24T05:35:12.172Z,0.70
2018-12-24T05:37:53.492Z,0.13
2018-12-24T05:40:40.921Z,0.10
2018-12-24T05:43:21.961Z,0.13
2018-12-24T05:46:02.463Z,0.25
2018-12-24T05:48:42.965Z,0.27
2018-12-24T05:51:24.086Z,0.10
2018-12-24T05:54:11.504Z,1.20
2018-12-24T05:56:52.188Z,0.17
2018-12-24T05:59:30.937Z,1.75
2018-12-24T06:02:12.029Z,0.03
2018-12-24T06:04:59.450Z,0.00
2018-12-24T06:07:41.069Z,0.00
2018-12-24T06:10:28.518Z,0.20
2018-12-24T06:13:16.261Z,0.10
2018-12-24T06:15:57.353Z,0.00
2018-12-24T06:18:44.777Z,0.00
2018-12-24T06:21:25.697Z,1.07
2018-12-24T06:24:13.144Z,0.00
2018-12-24T06:26:52.088Z,0.00
2018-12-24T06:29:39.529Z,0.10
2018-12-24T06:32:18.228Z,0.00
2018-12-24T06:35:06.009Z,0.00
2018-12-24T06:37:44.950Z,0.17
2018-12-24T06:40:32.402Z,0.00
2018-12-24T06:43:14.219Z,0.00
2018-12-24T06:46:01.642Z,0.00
2018-12-24T06:48:42.749Z,0.10
2018-12-24T06:51:21.664Z,0.00
2018-12-24T06:54:09.085Z,0.00
2018-12-24T06:56:47.936Z,1.07
2018-12-24T06:59:35.369Z,0.20
2018-12-24T07:02:16.485Z,0.10
2018-12-24T07:05:03.903Z,0.00
2018-12-24T07:07:44.713Z,0.00
2018-12-24T07:10:25.296Z,0.00
2018-12-24T07:13:05.836Z,0.00
2018-12-24T07:15:46.469Z,0.83
2018-12-24T07:18:27.117Z,0.00
2018-12-24T07:21:07.956Z,0.00
2018-12-24T07:23:47.045Z,0.10
2018-12-24T07:26:34.485Z,0.07
2018-12-24T07:29:15.964Z,0.00
2018-12-24T07:32:03.384Z,0.00
2018-12-24T07:34:44.364Z,0.10
2018-12-24T07:37:32.108Z,0.00
2018-12-24T07:40:13.928Z,0.00
2018-12-24T07:43:01.349Z,0.00
2018-12-24T07:45:48.879Z,0.00
2018-12-24T07:48:31.185Z,0.83
2018-12-24T07:51:11.931Z,0.03
2018-12-24T07:53:52.676Z,0.00
2018-12-24T07:56:34.103Z,0.20
2018-12-24T07:59:21.544Z,0.10
2018-12-24T08:02:02.498Z,0.10
2018-12-24T08:04:49.949Z,0.10
2018-12-24T08:07:30.923Z,0.10
2018-12-24T08:10:09.730Z,0.10
2018-12-24T08:12:50.576Z,0.20
2018-12-24T08:15:29.530Z,0.70
2018-12-24T08:18:10.481Z,0.20
2018-12-24T08:20:49.281Z,0.10
2018-12-24T08:23:30.273Z,0.30
2018-12-24T08:26:11.877Z,0.87
2018-12-24T08:28:59.616Z,0.40
2018-12-24T08:31:40.617Z,0.20
2018-12-24T08:34:28.029Z,0.40
2018-12-24T08:37:08.686Z,0.20
2018-12-24T08:39:50.064Z,0.20
2018-12-24T08:42:37.814Z,0.20
2018-12-24T08:45:18.848Z,0.20
2018-12-24T08:47:57.669Z,0.20
2018-12-24T08:50:38.629Z,1.13
2018-12-24T08:53:26.356Z,0.53
2018-12-24T08:56:08.174Z,0.30
2018-12-24T08:58:55.593Z,0.70
2018-12-24T09:01:36.394Z,0.40
2018-12-24T09:04:15.220Z,0.50
2018-12-24T09:07:02.660Z,0.53
2018-12-24T09:09:43.590Z,0.50
2018-12-24T09:12:24.165Z,0.60
2018-12-24T09:15:03.378Z,0.70
2018-12-24T09:17:44.168Z,0.40
2018-12-24T09:20:24.956Z,0.80
2018-12-24T09:23:03.767Z,0.40
2018-12-24T09:25:44.756Z,0.57
2018-12-24T09:28:26.301Z,0.30
2018-12-24T09:31:13.730Z,0.30
2018-12-24T09:33:52.559Z,0.40
2018-12-24T09:36:39.983Z,0.50
2018-12-24T09:39:18.657Z,0.50
2018-12-24T09:42:06.068Z,0.40
2018-12-24T09:44:46.605Z,0.40
2018-12-24T09:47:27.258Z,0.67
2018-12-24T09:50:07.752Z,0.50
2018-12-24T09:52:46.732Z,0.53
2018-12-24T09:55:27.749Z,0.40
2018-12-24T09:58:08.929Z,0.70
2018-12-24T10:00:56.353Z,0.40
2018-12-24T10:03:37.212Z,0.37
2018-12-24T10:06:18.729Z,0.30
2018-12-24T10:09:06.141Z,0.80
2018-12-24T10:11:45.091Z,2.00
2018-12-24T10:14:32.514Z,0.60
2018-12-24T10:17:11.234Z,0.40
2018-12-24T10:19:58.981Z,0.40
2018-12-24T10:22:40.601Z,0.30
2018-12-24T10:25:28.025Z,0.20
2018-12-24T10:28:15.465Z,0.20
2018-12-24T10:30:54.300Z,0.30
2018-12-24T10:33:41.753Z,0.28
2018-12-24T10:36:20.857Z,0.30
2018-12-24T10:39:08.277Z,0.60
2018-12-24T10:41:48.889Z,0.30
2018-12-24T10:44:30.230Z,0.50
2018-12-24T10:47:17.655Z,0.30
2018-12-24T10:49:58.342Z,0.70
2018-12-24T10:52:39.528Z,0.23
2018-12-24T10:55:26.945Z,0.77
2018-12-24T10:58:14.365Z,0.20
2018-12-24T11:00:55.595Z,0.27
2018-12-24T11:03:43.029Z,0.43
2018-12-24T11:06:24.897Z,1.03
2018-12-24T11:09:12.341Z,0.30
2018-12-24T11:11:53.131Z,0.30
2018-12-24T11:14:34.368Z,1.02
2018-12-24T11:17:14.990Z,0.30
2018-12-24T11:19:53.975Z,0.28
2018-12-24T11:22:35.693Z,0.30
2018-12-24T11:25:23.145Z,0.30
2018-12-24T11:28:03.964Z,0.37
2018-12-24T11:30:42.829Z,3.05
2018-12-24T11:33:23.585Z,0.35
2018-12-24T11:36:04.207Z,0.47
2018-12-24T11:38:45.124Z,1.10
2018-12-24T11:41:25.657Z,0.80
2018-12-24T11:44:07.136Z,0.42
2018-12-24T11:46:54.553Z,0.40
2018-12-24T11:49:36.221Z,0.40
2018-12-24T11:52:23.669Z,0.40
2018-12-24T11:55:05.013Z,0.20
2018-12-24T11:57:52.457Z,1.40
2018-12-24T12:00:31.223Z,0.20
2018-12-24T12:03:10.008Z,0.10
2018-12-24T12:05:57.781Z,0.10
2018-12-24T12:08:38.456Z,0.80
2018-12-24T12:11:19.066Z,0.47
2018-12-24T12:13:59.972Z,0.27
2018-12-24T12:16:40.544Z,0.30
2018-12-24T12:19:19.404Z,0.35
2018-12-24T12:22:06.829Z,0.20
2018-12-24T12:24:48.672Z,0.60
2018-12-24T12:27:36.093Z,0.40
2018-12-24T12:30:16.919Z,0.28
2018-12-24T12:32:58.204Z,0.35
2018-12-24T12:35:45.647Z,0.30
2018-12-24T12:38:29.894Z,0.20
2018-12-24T12:41:08.733Z,0.70
2018-12-24T12:43:47.635Z,0.30
2018-12-24T12:46:35.051Z,0.40
2018-12-24T12:49:13.963Z,0.40
2018-12-24T12:52:01.377Z,0.37
2018-12-24T12:54:42.239Z,0.33
2018-12-24T12:57:23.917Z,0.57
2018-12-24T13:00:11.356Z,0.50
2018-12-24T13:02:52.137Z,2.05
2018-12-24T13:05:32.828Z,0.40
2018-12-24T13:08:11.839Z,0.33
2018-12-24T13:10:52.706Z,0.72
2018-12-24T13:13:36.868Z,0.82
2018-12-24T13:16:15.956Z,1.45
2018-12-24T13:18:56.554Z,0.47
2018-12-24T13:21:37.161Z,0.20
2018-12-24T13:24:18.137Z,0.57
2018-12-24T13:26:58.646Z,6.53
2018-12-24T13:29:37.621Z,0.20
2018-12-24T13:32:18.635Z,0.40
2018-12-24T13:34:57.608Z,0.82
2018-12-24T13:37:45.348Z,0.20
2018-12-24T13:40:23.884Z,0.23
2018-12-24T13:43:11.306Z,0.33
2018-12-24T13:45:50.244Z,0.30
2018-12-24T13:48:37.656Z,0.20
2018-12-24T13:51:16.429Z,0.23
2018-12-24T13:54:03.849Z,2.47
2018-12-24T13:56:45.109Z,0.75
2018-12-24T13:59:32.542Z,0.40
2018-12-24T14:02:16.414Z,0.25
2018-12-24T14:05:03.701Z,1.15
2018-12-24T14:07:44.693Z,0.30
2018-12-24T14:10:32.435Z,0.10
2018-12-24T14:13:11.571Z,0.62
2018-12-24T14:15:52.564Z,0.28
2018-12-24T14:18:31.633Z,0.40
2018-12-24T14:21:12.722Z,0.78
2018-12-24T14:24:00.137Z,0.20
2018-12-24T14:26:41.285Z,0.17
2018-12-24T14:29:28.705Z,0.47
2018-12-24T14:32:09.490Z,0.40
2018-12-24T14:34:50.130Z,0.70
2018-12-24T14:37:31.525Z,0.95
2018-12-24T14:40:18.940Z,0.20
2018-12-24T14:42:59.777Z,0.73
2018-12-24T14:45:38.737Z,0.88
2018-12-24T14:48:26.512Z,0.23
2018-12-24T14:51:07.421Z,0.42
2018-12-24T14:53:48.716Z,0.67
2018-12-24T14:56:36.174Z,0.30
2018-12-24T14:59:19.232Z,0.30
2018-12-24T15:01:59.625Z,0.30
2018-12-24T15:04:40.445Z,0.50
2018-12-24T15:07:21.097Z,0.50
2018-12-24T15:10:00.001Z,0.27
2018-12-24T15:12:47.401Z,0.23
2018-12-24T15:15:26.244Z,0.27
2018-12-24T15:18:05.208Z,0.43
2018-12-24T15:20:43.993Z,0.30
2018-12-24T15:23:25.689Z,0.35
2018-12-24T15:26:04.722Z,0.40
2018-12-24T15:28:52.129Z,0.43
2018-12-24T15:31:31.121Z,0.30
2018-12-24T15:34:18.548Z,0.20
2018-12-24T15:36:57.610Z,0.10
2018-12-24T15:39:45.033Z,0.17
2018-12-24T15:42:23.969Z,0.50
2018-12-24T15:45:11.416Z,0.20
2018-12-24T15:47:52.599Z,0.10
2018-12-24T15:50:40.021Z,0.50
2018-12-24T15:53:20.952Z,0.20
2018-12-24T15:56:01.585Z,0.40
2018-12-24T15:58:40.678Z,0.30
2018-12-24T16:01:21.579Z,0.57
2018-12-24T16:04:00.592Z,0.83
2018-12-24T16:06:39.576Z,0.43
2018-12-24T16:09:27.320Z,0.47
2018-12-24T16:12:08.265Z,0.50
2018-12-24T16:14:49.044Z,0.63
2018-12-24T16:17:30.376Z,1.20
2018-12-24T16:20:17.817Z,1.97
2018-12-24T16:22:58.818Z,0.53
2018-12-24T16:25:39.308Z,1.07
2018-12-24T16:28:18.338Z,0.80
2018-12-24T16:31:05.771Z,1.23
2018-12-24T16:33:44.504Z,1.13
2018-12-24T16:36:23.368Z,0.47
2018-12-24T16:39:11.109Z,0.50
2018-12-24T16:41:52.508Z,0.70
2018-12-24T16:44:39.924Z,1.87
2018-12-24T16:47:20.705Z,1.27
2018-12-24T16:49:59.608Z,0.57
2018-12-24T16:52:40.608Z,0.57
2018-12-24T16:55:21.101Z,0.60
2018-12-24T16:58:01.653Z,1.13
2018-12-24T17:00:42.504Z,0.70
2018-12-24T17:03:21.433Z,1.00
2018-12-24T17:06:08.845Z,0.53
2018-12-24T17:08:49.649Z,1.17
2018-12-24T17:11:28.560Z,0.73
2018-12-24T17:14:07.332Z,0.60
2018-12-24T17:16:48.205Z,1.10
2018-12-24T17:19:29.045Z,0.83
2018-12-24T17:22:09.724Z,2.30
2018-12-24T17:24:48.801Z,6.30
2018-12-24T17:27:36.541Z,1.70
2018-12-24T17:30:17.478Z,1.10
2018-12-24T17:33:04.906Z,0.80
2018-12-24T17:35:52.324Z,1.97
2018-12-24T17:38:33.399Z,0.83
2018-12-24T17:41:12.329Z,1.13
2018-12-24T17:43:51.062Z,1.57
2018-12-24T17:46:38.477Z,1.10
2018-12-24T17:49:19.987Z,1.07
2018-12-24T17:52:07.451Z,1.40
2018-12-24T17:54:48.328Z,3.40
2018-12-24T17:57:29.173Z,3.17
2018-12-24T18:00:07.916Z,2.03
2018-12-24T18:02:55.336Z,1.10
2018-12-24T18:05:34.212Z,1.93
2018-12-24T18:08:21.641Z,1.40
2018-12-24T18:11:02.895Z,0.63
2018-12-24T18:13:50.701Z,0.67
2018-12-24T18:16:29.609Z,2.10
2018-12-24T18:19:17.032Z,2.00
2018-12-24T18:21:55.949Z,2.33
2018-12-24T18:24:34.680Z,2.73
2018-12-24T18:27:22.121Z,1.20
2018-12-24T18:30:04.220Z,1.87
2018-12-24T18:32:51.627Z,1.87
2018-12-24T18:35:32.387Z,2.13
2018-12-24T18:38:13.057Z,2.20
2018-12-24T18:40:53.543Z,1.20
2018-12-24T18:43:34.113Z,1.40
2018-12-24T18:46:15.242Z,1.20
2018-12-24T18:49:02.656Z,1.23
2018-12-24T18:51:43.676Z,2.23
2018-12-24T18:54:24.261Z,2.63
2018-12-24T18:57:05.141Z,1.27
2018-12-24T18:59:45.716Z,2.07
2018-12-24T19:02:24.703Z,1.70
2018-12-24T19:05:12.121Z,1.97
2018-12-24T19:07:53.340Z,1.10
2018-12-24T19:10:40.761Z,2.37
2018-12-24T19:13:21.408Z,1.23
2018-12-24T19:16:02.161Z,1.67
2018-12-24T19:18:41.213Z,1.17
2018-12-24T19:21:19.873Z,1.50
2018-12-24T19:24:07.295Z,1.20
2018-12-24T19:26:48.634Z,1.33
2018-12-24T19:29:36.064Z,1.10
2018-12-24T19:32:17.005Z,1.97
2018-12-24T19:34:55.868Z,1.30
2018-12-24T19:37:37.424Z,1.70
2018-12-24T19:40:24.901Z,1.50
2018-12-24T19:43:03.770Z,1.50
2018-12-24T19:45:51.193Z,2.07
2018-12-24T19:48:32.000Z,2.67
2018-12-24T19:51:13.167Z,1.50
2018-12-24T19:54:00.576Z,2.00
2018-12-24T19:56:41.476Z,1.47
2018-12-24T19:59:22.792Z,1.43
2018-12-24T20:02:10.236Z,2.07
2018-12-24T20:04:51.409Z,2.03
2018-12-24T20:07:30.405Z,1.40
2018-12-24T20:10:17.833Z,2.10
2018-12-24T20:12:58.692Z,1.90
2018-12-24T20:15:37.561Z,1.30
2018-12-24T20:18:18.476Z,1.83
2018-12-24T20:20:58.979Z,1.40
2018-12-24T20:23:38.041Z,1.60
2018-12-24T20:26:19.157Z,2.10
2018-12-24T20:28:59.913Z,2.17
2018-12-24T20:31:40.677Z,2.20
2018-12-24T20:34:21.253Z,2.03
2018-12-24T20:37:01.857Z,2.03
2018-12-24T20:39:42.752Z,2.33
2018-12-24T20:42:23.577Z,2.30
2018-12-24T20:45:04.198Z,2.30
2018-12-24T20:47:44.741Z,3.40
2018-12-24T20:50:25.481Z,2.37
2018-12-24T20:53:06.084Z,3.60
2018-12-24T20:55:46.948Z,3.43
2018-12-24T20:58:25.872Z,1.83
2018-12-24T21:01:13.337Z,2.00
2018-12-24T21:03:54.374Z,1.90
2018-12-24T21:06:41.824Z,3.23
2018-12-24T21:09:22.574Z,1.87
2018-12-24T21:12:01.724Z,2.37
2018-12-24T21:17:47.564Z,3.03
2018-12-24T21:20:34.975Z,2.10
2018-12-24T21:23:22.734Z,1.70
2018-12-24T21:26:03.785Z,1.90
2018-12-24T21:28:42.794Z,2.00
2018-12-24T21:31:30.528Z,3.03
2018-12-24T21:34:11.865Z,3.30
2018-12-24T21:36:59.615Z,2.53
2018-12-24T21:39:41.354Z,2.30
2018-12-24T21:42:28.773Z,3.37
2018-12-24T21:45:09.381Z,2.10
2018-12-24T21:47:49.878Z,3.13
2018-12-24T21:50:31.099Z,2.50
2018-12-24T21:53:18.548Z,2.67
2018-12-24T21:55:59.221Z,3.17
2018-12-24T21:58:38.205Z,2.53
2018-12-24T22:01:25.621Z,3.50
2018-12-24T22:04:06.294Z,2.67
2018-12-24T22:06:45.261Z,4.47
2018-12-24T22:09:26.191Z,5.03
2018-12-24T22:12:13.613Z,5.93
2018-12-24T22:14:54.488Z,7.53
2018-12-24T22:17:35.488Z,3.27
2018-12-24T22:20:23.277Z,4.37
2018-12-24T22:23:02.165Z,4.87
2018-12-24T22:25:43.116Z,5.47
2018-12-24T22:28:24.297Z,3.97
2018-12-24T22:31:11.712Z,5.63
2018-12-24T22:33:52.772Z,4.17
2018-12-24T22:36:34.145Z,4.60
2018-12-24T22:39:21.901Z,3.77
2018-12-24T22:42:03.236Z,5.30
2018-12-24T22:44:50.986Z,5.37
2018-12-24T22:47:33.903Z,5.80
2018-12-24T22:50:13.099Z,3.97
2018-12-24T22:53:00.504Z,4.90
2018-12-24T22:55:39.552Z,5.37
2018-12-24T22:58:26.981Z,6.23
2018-12-24T23:01:07.824Z,6.20
2018-12-24T23:03:48.432Z,5.27
2018-12-24T23:06:29.613Z,5.37
2018-12-24T23:09:17.048Z,5.07
2018-12-24T23:11:58.732Z,4.83
2018-12-24T23:14:46.488Z,4.10
2018-12-24T23:17:25.321Z,6.90
2018-12-24T23:20:06.252Z,4.67
2018-12-24T23:22:45.142Z,7.20
2018-12-24T23:25:26.214Z,5.10
2018-12-24T23:28:05.117Z,7.80
2018-12-24T23:30:46.261Z,4.83
2018-12-24T23:33:25.140Z,6.50
2018-12-24T23:36:06.281Z,5.40
2018-12-24T23:38:46.913Z,5.00
2018-12-24T23:41:25.802Z,5.70
2018-12-24T23:44:13.220Z,4.93
2018-12-24T23:46:54.177Z,6.67
2018-12-24T23:49:41.925Z,6.23
2018-12-24T23:52:23.830Z,5.10
2018-12-24T23:55:11.292Z,6.70
2018-12-24T23:57:49.965Z,6.67
